Online Now
Guests 1
Members   0

24/7 FSX Server
IP: 71.135.74.145
@ KSFO until 6/28/19



Information and tools for flight simulation use only - NOT for real avaition

File Flight Plans Here

KSFO 241356Z 00000KT 10SM FEW007 SCT200 14/12 A2988 RMK AO2 SLP119 T01440122KSFO 241121Z 2412/2518 29007KT P6SM FEW007 TEMPO 2412/2416 BKN010 FM241700 31009KT P6SM FEW010 FEW200 FM242000 29015G20KT P6SM FEW200 FM250300 28011KT P6SM FEW012 SCT200 FM251100 27006KT P6SM SCT010
Aviation Digital Data Service (ADDS)



Other FSX servers